sensor_id;sensor_type;location;lat;lon;timestamp;temperature;humidity
36716;DHT22;22699;51.034;3.730;2023-03-21T00:00:29;11.60;99.90
36716;DHT22;22699;51.034;3.730;2023-03-21T00:02:55;11.50;99.90
36716;DHT22;22699;51.034;3.730;2023-03-21T00:05:20;11.60;99.90
36716;DHT22;22699;51.034;3.730;2023-03-21T00:07:46;11.80;99.90
36716;DHT22;22699;51.034;3.730;2023-03-21T00:10:12;12.00;99.90
36716;DHT22;22699;51.034;3.730;2023-03-21T00:12:37;12.00;99.90
36716;DHT22;22699;51.034;3.730;2023-03-21T00:15:07;11.90;99.90
36716;DHT22;22699;51.034;3.730;2023-03-21T00:17:34;11.80;99.90
36716;DHT22;22699;51.034;3.730;2023-03-21T00:20:02;11.70;99.90
36716;DHT22;22699;51.034;3.730;2023-03-21T00:22:30;11.90;99.90
36716;DHT22;22699;51.034;3.730;2023-03-21T00:24:58;11.90;99.90
36716;DHT22;22699;51.034;3.730;2023-03-21T00:27:24;12.00;99.90
36716;DHT22;22699;51.034;3.730;2023-03-21T00:29:49;12.00;99.90
36716;DHT22;22699;51.034;3.730;2023-03-21T00:32:16;12.00;99.90
36716;DHT22;22699;51.034;3.730;2023-03-21T00:34:42;11.70;99.90
36716;DHT22;22699;51.034;3.730;2023-03-21T00:37:08;11.80;99.90
36716;DHT22;22699;51.034;3.730;2023-03-21T00:39:34;11.70;99.90
36716;DHT22;22699;51.034;3.730;2023-03-21T00:42:00;11.70;99.90
36716;DHT22;22699;51.034;3.730;2023-03-21T00:44:26;11.60;99.90
36716;DHT22;22699;51.034;3.730;2023-03-21T00:46:53;11.70;99.90
36716;DHT22;22699;51.034;3.730;2023-03-21T00:49:18;11.70;99.90
36716;DHT22;22699;51.034;3.730;2023-03-21T00:51:47;11.60;99.90
36716;DHT22;22699;51.034;3.730;2023-03-21T00:54:16;11.50;99.90
36716;DHT22;22699;51.034;3.730;2023-03-21T00:56:42;11.60;99.90
36716;DHT22;22699;51.034;3.730;2023-03-21T00:59:08;11.50;99.90
36716;DHT22;22699;51.034;3.730;2023-03-21T01:01:33;11.40;99.90
36716;DHT22;22699;51.034;3.730;2023-03-21T01:04:00;11.30;99.90
36716;DHT22;22699;51.034;3.730;2023-03-21T01:06:35;11.40;99.90
36716;DHT22;22699;51.034;3.730;2023-03-21T01:09:04;11.60;99.90
36716;DHT22;22699;51.034;3.730;2023-03-21T01:11:30;12.00;99.90
36716;DHT22;22699;51.034;3.730;2023-03-21T01:13:57;11.70;99.90
36716;DHT22;22699;51.034;3.730;2023-03-21T01:16:23;11.60;99.90
36716;DHT22;22699;51.034;3.730;2023-03-21T01:18:48;11.70;99.90
36716;DHT22;22699;51.034;3.730;2023-03-21T01:21:14;12.00;99.90
36716;DHT22;22699;51.034;3.730;2023-03-21T01:23:41;11.80;99.90
36716;DHT22;22699;51.034;3.730;2023-03-21T01:26:08;11.80;99.90
36716;DHT22;22699;51.034;3.730;2023-03-21T01:28:35;11.70;99.90
36716;DHT22;22699;51.034;3.730;2023-03-21T01:31:01;11.80;99.90
36716;DHT22;22699;51.034;3.730;2023-03-21T01:33:27;11.50;99.90
36716;DHT22;22699;51.034;3.730;2023-03-21T01:35:53;11.60;99.90
36716;DHT22;22699;51.034;3.730;2023-03-21T01:38:19;11.50;99.90
36716;DHT22;22699;51.034;3.730;2023-03-21T01:40:46;11.60;99.90
36716;DHT22;22699;51.034;3.730;2023-03-21T01:43:26;11.70;99.90
36716;DHT22;22699;51.034;3.730;2023-03-21T01:46:36;11.60;99.90
36716;DHT22;22699;51.034;3.730;2023-03-21T01:49:20;11.50;99.90
36716;DHT22;22699;51.034;3.730;2023-03-21T01:52:12;11.40;99.90
36716;DHT22;22699;51.034;3.730;2023-03-21T01:54:40;11.60;99.90
36716;DHT22;22699;51.034;3.730;2023-03-21T01:57:11;11.60;99.90
36716;DHT22;22699;51.034;3.730;2023-03-21T01:59:43;11.50;99.90
36716;DHT22;22699;51.034;3.730;2023-03-21T02:02:18;11.50;99.90
36716;DHT22;22699;51.034;3.730;2023-03-21T02:04:45;11.80;99.90
36716;DHT22;22699;51.034;3.730;2023-03-21T02:07:17;11.60;99.90
36716;DHT22;22699;51.034;3.730;2023-03-21T02:09:46;11.60;99.90
36716;DHT22;22699;51.034;3.730;2023-03-21T02:12:12;11.50;99.90
36716;DHT22;22699;51.034;3.730;2023-03-21T02:14:38;11.50;99.90
36716;DHT22;22699;51.034;3.730;2023-03-21T02:28:28;11.20;99.90
36716;DHT22;22699;51.034;3.730;2023-03-21T02:31:29;11.10;99.90
36716;DHT22;22699;51.034;3.730;2023-03-21T02:37:09;11.20;99.90
36716;DHT22;22699;51.034;3.730;2023-03-21T02:40:13;11.30;99.90
36716;DHT22;22699;51.034;3.730;2023-03-21T02:45:20;11.50;99.90
36716;DHT22;22699;51.034;3.730;2023-03-21T02:47:52;11.50;99.90
36716;DHT22;22699;51.034;3.730;2023-03-21T02:50:31;11.50;99.90
36716;DHT22;22699;51.034;3.730;2023-03-21T02:52:58;11.50;99.90
36716;DHT22;22699;51.034;3.730;2023-03-21T02:55:27;11.70;99.90
36716;DHT22;22699;51.034;3.730;2023-03-21T02:57:55;11.60;99.90
36716;DHT22;22699;51.034;3.730;2023-03-21T03:00:24;11.50;99.90
36716;DHT22;22699;51.034;3.730;2023-03-21T03:02:50;11.70;99.90
36716;DHT22;22699;51.034;3.730;2023-03-21T03:05:26;11.70;99.90
36716;DHT22;22699;51.034;3.730;2023-03-21T03:08:24;11.60;99.90
36716;DHT22;22699;51.034;3.730;2023-03-21T03:11:13;11.60;99.90
36716;DHT22;22699;51.034;3.730;2023-03-21T03:16:36;11.40;99.90
36716;DHT22;22699;51.034;3.730;2023-03-21T03:19:08;11.40;99.90
36716;DHT22;22699;51.034;3.730;2023-03-21T03:21:53;11.30;99.90
36716;DHT22;22699;51.034;3.730;2023-03-21T03:24:26;11.40;99.90
36716;DHT22;22699;51.034;3.730;2023-03-21T03:29:33;11.60;99.90
36716;DHT22;22699;51.034;3.730;2023-03-21T03:34:36;11.80;99.90
36716;DHT22;22699;51.034;3.730;2023-03-21T03:37:06;11.80;99.90
36716;DHT22;22699;51.034;3.730;2023-03-21T03:39:49;11.90;99.90
36716;DHT22;22699;51.034;3.730;2023-03-21T03:42:23;12.00;99.90
36716;DHT22;22699;51.034;3.730;2023-03-21T03:44:50;12.00;99.90
36716;DHT22;22699;51.034;3.730;2023-03-21T03:47:28;11.90;99.90
36716;DHT22;22699;51.034;3.730;2023-03-21T03:53:03;12.10;99.90
36716;DHT22;22699;51.034;3.730;2023-03-21T03:55:31;12.00;99.90
36716;DHT22;22699;51.034;3.730;2023-03-21T03:58:00;11.90;99.90
36716;DHT22;22699;51.034;3.730;2023-03-21T04:00:26;12.00;99.90
36716;DHT22;22699;51.034;3.730;2023-03-21T04:02:55;12.10;99.90
36716;DHT22;22699;51.034;3.730;2023-03-21T04:05:23;11.80;99.90
36716;DHT22;22699;51.034;3.730;2023-03-21T04:07:49;11.80;99.90
36716;DHT22;22699;51.034;3.730;2023-03-21T04:10:16;11.80;99.90
36716;DHT22;22699;51.034;3.730;2023-03-21T04:12:42;11.90;99.90
36716;DHT22;22699;51.034;3.730;2023-03-21T04:15:08;11.90;99.90
36716;DHT22;22699;51.034;3.730;2023-03-21T04:17:34;11.80;99.90
36716;DHT22;22699;51.034;3.730;2023-03-21T04:20:01;11.80;99.90
36716;DHT22;22699;51.034;3.730;2023-03-21T04:22:29;11.80;99.90
36716;DHT22;22699;51.034;3.730;2023-03-21T04:24:55;11.70;99.90
36716;DHT22;22699;51.034;3.730;2023-03-21T04:27:21;11.60;99.90
36716;DHT22;22699;51.034;3.730;2023-03-21T04:29:47;11.50;99.90
36716;DHT22;22699;51.034;3.730;2023-03-21T04:32:12;11.50;99.90
36716;DHT22;22699;51.034;3.730;2023-03-21T04:34:43;11.40;99.90
36716;DHT22;22699;51.034;3.730;2023-03-21T04:37:15;11.40;99.90
36716;DHT22;22699;51.034;3.730;2023-03-21T04:39:41;11.50;99.90
36716;DHT22;22699;51.034;3.730;2023-03-21T04:42:07;11.60;99.90
36716;DHT22;22699;51.034;3.730;2023-03-21T04:44:32;11.50;99.90
36716;DHT22;22699;51.034;3.730;2023-03-21T04:46:58;11.60;99.90
36716;DHT22;22699;51.034;3.730;2023-03-21T04:49:24;11.70;99.90
36716;DHT22;22699;51.034;3.730;2023-03-21T04:51:50;11.70;99.90
36716;DHT22;22699;51.034;3.730;2023-03-21T04:54:15;11.70;99.90
36716;DHT22;22699;51.034;3.730;2023-03-21T04:56:41;11.60;99.90
36716;DHT22;22699;51.034;3.730;2023-03-21T04:59:12;11.50;99.90
36716;DHT22;22699;51.034;3.730;2023-03-21T05:01:38;11.40;99.90
36716;DHT22;22699;51.034;3.730;2023-03-21T05:04:06;11.40;99.90
36716;DHT22;22699;51.034;3.730;2023-03-21T05:06:32;11.40;99.90
36716;DHT22;22699;51.034;3.730;2023-03-21T05:09:00;11.40;99.90
36716;DHT22;22699;51.034;3.730;2023-03-21T05:11:30;11.40;99.90
36716;DHT22;22699;51.034;3.730;2023-03-21T05:13:59;11.40;99.90
36716;DHT22;22699;51.034;3.730;2023-03-21T05:16:25;11.30;99.90
36716;DHT22;22699;51.034;3.730;2023-03-21T05:18:56;11.30;99.90
36716;DHT22;22699;51.034;3.730;2023-03-21T05:21:24;11.30;99.90
36716;DHT22;22699;51.034;3.730;2023-03-21T05:23:54;11.40;99.90
36716;DHT22;22699;51.034;3.730;2023-03-21T05:26:21;11.50;99.90
36716;DHT22;22699;51.034;3.730;2023-03-21T05:28:47;11.40;99.90
36716;DHT22;22699;51.034;3.730;2023-03-21T05:31:14;11.40;99.90
36716;DHT22;22699;51.034;3.730;2023-03-21T05:33:42;11.40;99.90
36716;DHT22;22699;51.034;3.730;2023-03-21T05:36:08;11.20;99.90
36716;DHT22;22699;51.034;3.730;2023-03-21T05:38:34;11.20;99.90
36716;DHT22;22699;51.034;3.730;2023-03-21T05:40:59;11.20;99.90
36716;DHT22;22699;51.034;3.730;2023-03-21T05:43:25;11.30;99.90
36716;DHT22;22699;51.034;3.730;2023-03-21T05:45:51;11.30;99.90
36716;DHT22;22699;51.034;3.730;2023-03-21T05:48:17;11.30;99.90
36716;DHT22;22699;51.034;3.730;2023-03-21T05:50:42;11.30;99.90
36716;DHT22;22699;51.034;3.730;2023-03-21T05:53:08;11.30;99.90
36716;DHT22;22699;51.034;3.730;2023-03-21T05:55:34;11.20;99.90
36716;DHT22;22699;51.034;3.730;2023-03-21T05:58:00;11.30;99.90
36716;DHT22;22699;51.034;3.730;2023-03-21T06:00:25;11.20;99.90
36716;DHT22;22699;51.034;3.730;2023-03-21T06:02:51;11.10;99.90
36716;DHT22;22699;51.034;3.730;2023-03-21T06:05:16;11.10;99.90
36716;DHT22;22699;51.034;3.730;2023-03-21T06:07:43;11.10;99.90
36716;DHT22;22699;51.034;3.730;2023-03-21T06:10:09;11.00;99.90
36716;DHT22;22699;51.034;3.730;2023-03-21T06:12:35;11.00;99.90
36716;DHT22;22699;51.034;3.730;2023-03-21T06:15:02;11.00;99.90
36716;DHT22;22699;51.034;3.730;2023-03-21T06:17:30;11.00;99.90
36716;DHT22;22699;51.034;3.730;2023-03-21T06:19:55;11.10;99.90
36716;DHT22;22699;51.034;3.730;2023-03-21T06:22:21;11.10;99.90
36716;DHT22;22699;51.034;3.730;2023-03-21T06:24:47;11.20;99.90
36716;DHT22;22699;51.034;3.730;2023-03-21T06:27:13;11.30;99.90
36716;DHT22;22699;51.034;3.730;2023-03-21T06:29:39;11.40;99.90
36716;DHT22;22699;51.034;3.730;2023-03-21T06:32:05;11.30;99.90
36716;DHT22;22699;51.034;3.730;2023-03-21T06:34:32;11.50;99.90
36716;DHT22;22699;51.034;3.730;2023-03-21T06:36:58;11.70;99.90
36716;DHT22;22699;51.034;3.730;2023-03-21T06:39:23;11.60;99.90
36716;DHT22;22699;51.034;3.730;2023-03-21T06:41:49;11.70;99.90
36716;DHT22;22699;51.034;3.730;2023-03-21T06:44:14;11.70;99.90
36716;DHT22;22699;51.034;3.730;2023-03-21T06:46:40;11.50;99.90
36716;DHT22;22699;51.034;3.730;2023-03-21T06:49:07;11.60;99.90
36716;DHT22;22699;51.034;3.730;2023-03-21T06:51:33;11.50;99.90
36716;DHT22;22699;51.034;3.730;2023-03-21T06:53:59;11.40;99.90
36716;DHT22;22699;51.034;3.730;2023-03-21T06:56:31;11.40;99.90
36716;DHT22;22699;51.034;3.730;2023-03-21T06:58:57;11.20;99.90
36716;DHT22;22699;51.034;3.730;2023-03-21T07:01:23;11.10;99.90
36716;DHT22;22699;51.034;3.730;2023-03-21T07:03:49;11.20;99.90
36716;DHT22;22699;51.034;3.730;2023-03-21T07:06:14;11.50;99.90
36716;DHT22;22699;51.034;3.730;2023-03-21T07:08:41;11.50;99.90
36716;DHT22;22699;51.034;3.730;2023-03-21T07:11:07;11.70;99.90
36716;DHT22;22699;51.034;3.730;2023-03-21T07:13:33;11.60;99.90
36716;DHT22;22699;51.034;3.730;2023-03-21T07:15:59;11.60;99.90
36716;DHT22;22699;51.034;3.730;2023-03-21T07:18:25;11.80;99.90
36716;DHT22;22699;51.034;3.730;2023-03-21T07:20:51;11.80;99.90
36716;DHT22;22699;51.034;3.730;2023-03-21T07:23:18;12.00;99.90
36716;DHT22;22699;51.034;3.730;2023-03-21T07:25:44;12.10;99.90
36716;DHT22;22699;51.034;3.730;2023-03-21T07:28:11;12.20;99.90
36716;DHT22;22699;51.034;3.730;2023-03-21T07:30:36;12.30;99.90
36716;DHT22;22699;51.034;3.730;2023-03-21T07:33:02;12.30;99.90
36716;DHT22;22699;51.034;3.730;2023-03-21T07:35:28;12.20;99.90
36716;DHT22;22699;51.034;3.730;2023-03-21T07:37:54;12.10;99.90
36716;DHT22;22699;51.034;3.730;2023-03-21T07:40:19;12.20;99.90
36716;DHT22;22699;51.034;3.730;2023-03-21T07:42:47;12.30;99.90
36716;DHT22;22699;51.034;3.730;2023-03-21T07:45:13;12.30;99.90
36716;DHT22;22699;51.034;3.730;2023-03-21T07:47:42;12.30;99.90
36716;DHT22;22699;51.034;3.730;2023-03-21T07:50:08;12.20;99.90
36716;DHT22;22699;51.034;3.730;2023-03-21T07:52:34;12.20;99.90
36716;DHT22;22699;51.034;3.730;2023-03-21T07:54:59;12.00;99.90
36716;DHT22;22699;51.034;3.730;2023-03-21T07:57:25;12.20;99.90
36716;DHT22;22699;51.034;3.730;2023-03-21T07:59:51;12.30;99.90
36716;DHT22;22699;51.034;3.730;2023-03-21T08:02:17;12.10;99.90
36716;DHT22;22699;51.034;3.730;2023-03-21T08:04:43;12.10;99.90
36716;DHT22;22699;51.034;3.730;2023-03-21T08:07:09;12.30;99.90
36716;DHT22;22699;51.034;3.730;2023-03-21T08:09:35;12.50;99.90
36716;DHT22;22699;51.034;3.730;2023-03-21T08:12:02;12.50;99.90
36716;DHT22;22699;51.034;3.730;2023-03-21T08:14:30;12.60;99.90
36716;DHT22;22699;51.034;3.730;2023-03-21T08:16:56;12.70;99.90
36716;DHT22;22699;51.034;3.730;2023-03-21T08:19:21;12.70;99.90
36716;DHT22;22699;51.034;3.730;2023-03-21T08:21:48;12.80;99.90
36716;DHT22;22699;51.034;3.730;2023-03-21T08:24:14;13.20;99.90
36716;DHT22;22699;51.034;3.730;2023-03-21T08:26:41;13.20;99.90
36716;DHT22;22699;51.034;3.730;2023-03-21T08:29:08;13.30;99.90
36716;DHT22;22699;51.034;3.730;2023-03-21T08:31:33;13.30;99.90
36716;DHT22;22699;51.034;3.730;2023-03-21T08:33:59;13.20;99.90
36716;DHT22;22699;51.034;3.730;2023-03-21T08:36:24;13.20;99.90
36716;DHT22;22699;51.034;3.730;2023-03-21T08:38:51;13.30;99.90
36716;DHT22;22699;51.034;3.730;2023-03-21T08:41:21;13.40;99.90
36716;DHT22;22699;51.034;3.730;2023-03-21T08:43:48;13.40;99.90
36716;DHT22;22699;51.034;3.730;2023-03-21T08:46:14;13.20;99.90
36716;DHT22;22699;51.034;3.730;2023-03-21T08:48:40;13.30;99.90
36716;DHT22;22699;51.034;3.730;2023-03-21T08:51:06;13.30;99.90
36716;DHT22;22699;51.034;3.730;2023-03-21T08:53:32;13.30;99.90
36716;DHT22;22699;51.034;3.730;2023-03-21T08:55:58;13.50;99.90
36716;DHT22;22699;51.034;3.730;2023-03-21T08:58:23;13.40;99.90
36716;DHT22;22699;51.034;3.730;2023-03-21T09:00:50;13.40;99.90
36716;DHT22;22699;51.034;3.730;2023-03-21T09:03:17;13.10;99.90
36716;DHT22;22699;51.034;3.730;2023-03-21T09:05:44;13.10;99.90
36716;DHT22;22699;51.034;3.730;2023-03-21T09:08:15;13.10;99.90
36716;DHT22;22699;51.034;3.730;2023-03-21T09:10:42;12.90;99.90
36716;DHT22;22699;51.034;3.730;2023-03-21T09:13:07;12.90;99.90
36716;DHT22;22699;51.034;3.730;2023-03-21T09:15:33;12.80;99.90
36716;DHT22;22699;51.034;3.730;2023-03-21T09:17:59;12.80;99.90
36716;DHT22;22699;51.034;3.730;2023-03-21T09:20:40;12.90;99.90
36716;DHT22;22699;51.034;3.730;2023-03-21T09:23:08;12.80;99.90
36716;DHT22;22699;51.034;3.730;2023-03-21T09:25:35;12.80;99.90
36716;DHT22;22699;51.034;3.730;2023-03-21T09:28:02;12.80;99.90
36716;DHT22;22699;51.034;3.730;2023-03-21T09:30:32;13.00;99.90
36716;DHT22;22699;51.034;3.730;2023-03-21T09:33:02;12.80;99.90
36716;DHT22;22699;51.034;3.730;2023-03-21T09:35:31;13.00;99.90
36716;DHT22;22699;51.034;3.730;2023-03-21T09:37:57;13.00;99.90
36716;DHT22;22699;51.034;3.730;2023-03-21T09:43:49;13.20;99.90
36716;DHT22;22699;51.034;3.730;2023-03-21T09:51:24;13.50;99.90
36716;DHT22;22699;51.034;3.730;2023-03-21T09:53:54;13.40;99.90
36716;DHT22;22699;51.034;3.730;2023-03-21T09:56:22;13.40;99.90
36716;DHT22;22699;51.034;3.730;2023-03-21T09:58:53;13.40;99.90
36716;DHT22;22699;51.034;3.730;2023-03-21T10:01:25;13.30;99.90
36716;DHT22;22699;51.034;3.730;2023-03-21T10:03:59;13.30;99.90
36716;DHT22;22699;51.034;3.730;2023-03-21T10:06:25;13.40;99.90
36716;DHT22;22699;51.034;3.730;2023-03-21T10:09:19;13.50;99.90
36716;DHT22;22699;51.034;3.730;2023-03-21T10:12:13;13.60;99.90
36716;DHT22;22699;51.034;3.730;2023-03-21T10:14:43;13.60;99.90
36716;DHT22;22699;51.034;3.730;2023-03-21T10:20:19;13.50;99.90
36716;DHT22;22699;51.034;3.730;2023-03-21T10:22:48;13.20;99.90
36716;DHT22;22699;51.034;3.730;2023-03-21T10:25:29;13.10;99.90
36716;DHT22;22699;51.034;3.730;2023-03-21T10:27:56;12.80;99.90
36716;DHT22;22699;51.034;3.730;2023-03-21T10:30:39;12.70;99.90
36716;DHT22;22699;51.034;3.730;2023-03-21T10:33:08;12.80;99.90
36716;DHT22;22699;51.034;3.730;2023-03-21T10:35:38;13.00;99.90
36716;DHT22;22699;51.034;3.730;2023-03-21T10:38:12;13.10;99.90
36716;DHT22;22699;51.034;3.730;2023-03-21T10:40:39;13.10;99.90
36716;DHT22;22699;51.034;3.730;2023-03-21T10:43:19;13.10;99.90
36716;DHT22;22699;51.034;3.730;2023-03-21T10:45:54;13.10;99.90
36716;DHT22;22699;51.034;3.730;2023-03-21T10:48:23;13.50;99.90
36716;DHT22;22699;51.034;3.730;2023-03-21T10:50:55;13.60;99.90
36716;DHT22;22699;51.034;3.730;2023-03-21T10:53:28;13.80;99.90
36716;DHT22;22699;51.034;3.730;2023-03-21T10:55:58;14.00;99.90
36716;DHT22;22699;51.034;3.730;2023-03-21T10:58:35;14.20;99.90
36716;DHT22;22699;51.034;3.730;2023-03-21T11:01:06;14.50;99.90
36716;DHT22;22699;51.034;3.730;2023-03-21T11:03:39;14.60;99.90
36716;DHT22;22699;51.034;3.730;2023-03-21T11:06:16;14.30;99.90
36716;DHT22;22699;51.034;3.730;2023-03-21T11:08:47;14.20;99.90
36716;DHT22;22699;51.034;3.730;2023-03-21T11:14:32;14.60;99.90
36716;DHT22;22699;51.034;3.730;2023-03-21T11:16:58;14.60;99.90
36716;DHT22;22699;51.034;3.730;2023-03-21T11:19:32;14.40;99.90
36716;DHT22;22699;51.034;3.730;2023-03-21T11:22:07;14.30;99.90
36716;DHT22;22699;51.034;3.730;2023-03-21T11:24:34;14.50;99.90
36716;DHT22;22699;51.034;3.730;2023-03-21T11:27:05;14.40;99.90
36716;DHT22;22699;51.034;3.730;2023-03-21T11:29:37;14.70;99.90
36716;DHT22;22699;51.034;3.730;2023-03-21T11:34:47;14.70;99.90
36716;DHT22;22699;51.034;3.730;2023-03-21T11:39:45;14.70;99.90
36716;DHT22;22699;51.034;3.730;2023-03-21T11:42:32;14.50;99.90
36716;DHT22;22699;51.034;3.730;2023-03-21T11:45:26;14.50;99.90
36716;DHT22;22699;51.034;3.730;2023-03-21T11:47:54;14.80;99.90
36716;DHT22;22699;51.034;3.730;2023-03-21T11:50:42;14.90;99.90
36716;DHT22;22699;51.034;3.730;2023-03-21T11:56:23;15.10;99.90
36716;DHT22;22699;51.034;3.730;2023-03-21T12:01:40;15.00;99.90
36716;DHT22;22699;51.034;3.730;2023-03-21T12:04:45;14.90;99.90
36716;DHT22;22699;51.034;3.730;2023-03-21T12:12:26;14.80;99.90
36716;DHT22;22699;51.034;3.730;2023-03-21T12:23:25;14.70;99.90
36716;DHT22;22699;51.034;3.730;2023-03-21T12:40:08;14.60;99.90
36716;DHT22;22699;51.034;3.730;2023-03-21T12:45:23;14.60;99.90
36716;DHT22;22699;51.034;3.730;2023-03-21T12:48:02;14.40;99.90
36716;DHT22;22699;51.034;3.730;2023-03-21T12:50:34;14.50;99.90
36716;DHT22;22699;51.034;3.730;2023-03-21T12:53:39;14.60;99.90
36716;DHT22;22699;51.034;3.730;2023-03-21T12:56:11;14.70;99.90
36716;DHT22;22699;51.034;3.730;2023-03-21T12:58:52;14.40;99.90
36716;DHT22;22699;51.034;3.730;2023-03-21T13:01:20;14.40;99.90
36716;DHT22;22699;51.034;3.730;2023-03-21T13:06:55;14.20;99.90
36716;DHT22;22699;51.034;3.730;2023-03-21T13:09:40;14.10;99.90
36716;DHT22;22699;51.034;3.730;2023-03-21T13:12:33;14.00;99.90
36716;DHT22;22699;51.034;3.730;2023-03-21T13:15:17;13.90;99.90
36716;DHT22;22699;51.034;3.730;2023-03-21T13:18:01;14.10;99.90
36716;DHT22;22699;51.034;3.730;2023-03-21T13:20:45;14.10;99.90
36716;DHT22;22699;51.034;3.730;2023-03-21T13:23:12;14.10;99.90
36716;DHT22;22699;51.034;3.730;2023-03-21T13:25:42;14.00;99.90
36716;DHT22;22699;51.034;3.730;2023-03-21T13:28:18;13.90;99.90
36716;DHT22;22699;51.034;3.730;2023-03-21T13:30:45;13.70;99.90
36716;DHT22;22699;51.034;3.730;2023-03-21T13:33:15;13.70;99.90
36716;DHT22;22699;51.034;3.730;2023-03-21T13:35:44;13.70;99.90
36716;DHT22;22699;51.034;3.730;2023-03-21T13:38:21;13.70;99.90
36716;DHT22;22699;51.034;3.730;2023-03-21T13:41:12;13.80;99.90
36716;DHT22;22699;51.034;3.730;2023-03-21T13:49:01;13.50;99.90
36716;DHT22;22699;51.034;3.730;2023-03-21T13:51:51;13.50;99.90
36716;DHT22;22699;51.034;3.730;2023-03-21T13:56:59;13.20;99.90
36716;DHT22;22699;51.034;3.730;2023-03-21T14:04:43;13.00;99.90
36716;DHT22;22699;51.034;3.730;2023-03-21T14:07:13;13.00;99.90
36716;DHT22;22699;51.034;3.730;2023-03-21T14:09:44;12.90;99.90
36716;DHT22;22699;51.034;3.730;2023-03-21T14:12:15;12.90;99.90
36716;DHT22;22699;51.034;3.730;2023-03-21T14:14:56;13.00;99.90
36716;DHT22;22699;51.034;3.730;2023-03-21T14:17:25;13.10;99.90
36716;DHT22;22699;51.034;3.730;2023-03-21T14:20:00;13.10;99.90
36716;DHT22;22699;51.034;3.730;2023-03-21T14:22:28;13.10;99.90
36716;DHT22;22699;51.034;3.730;2023-03-21T14:25:01;13.30;99.90
36716;DHT22;22699;51.034;3.730;2023-03-21T14:27:30;13.50;99.90
36716;DHT22;22699;51.034;3.730;2023-03-21T14:29:58;13.40;99.90
36716;DHT22;22699;51.034;3.730;2023-03-21T14:32:26;13.60;99.90
36716;DHT22;22699;51.034;3.730;2023-03-21T14:34:54;13.50;99.90
36716;DHT22;22699;51.034;3.730;2023-03-21T14:37:43;13.40;99.90
36716;DHT22;22699;51.034;3.730;2023-03-21T14:40:23;13.40;99.90
36716;DHT22;22699;51.034;3.730;2023-03-21T14:42:50;13.50;99.90
36716;DHT22;22699;51.034;3.730;2023-03-21T14:45:24;13.50;99.90
36716;DHT22;22699;51.034;3.730;2023-03-21T14:50:23;13.70;99.90
36716;DHT22;22699;51.034;3.730;2023-03-21T14:52:52;13.70;99.90
36716;DHT22;22699;51.034;3.730;2023-03-21T14:55:17;14.00;99.90
36716;DHT22;22699;51.034;3.730;2023-03-21T14:57:43;14.00;99.90
36716;DHT22;22699;51.034;3.730;2023-03-21T15:00:19;14.20;99.90
36716;DHT22;22699;51.034;3.730;2023-03-21T15:02:47;14.10;99.90
36716;DHT22;22699;51.034;3.730;2023-03-21T15:05:35;14.20;99.90
36716;DHT22;22699;51.034;3.730;2023-03-21T15:08:07;14.20;99.90
36716;DHT22;22699;51.034;3.730;2023-03-21T15:10:33;14.30;99.90
36716;DHT22;22699;51.034;3.730;2023-03-21T15:13:09;14.00;99.90
36716;DHT22;22699;51.034;3.730;2023-03-21T15:15:37;14.00;99.90
36716;DHT22;22699;51.034;3.730;2023-03-21T15:18:05;14.10;99.90
36716;DHT22;22699;51.034;3.730;2023-03-21T15:20:34;14.10;99.90
36716;DHT22;22699;51.034;3.730;2023-03-21T15:23:05;14.10;99.90
36716;DHT22;22699;51.034;3.730;2023-03-21T15:25:34;14.20;99.90
36716;DHT22;22699;51.034;3.730;2023-03-21T15:28:01;14.00;99.90
36716;DHT22;22699;51.034;3.730;2023-03-21T15:30:29;14.00;99.90
36716;DHT22;22699;51.034;3.730;2023-03-21T15:32:56;13.90;99.90
36716;DHT22;22699;51.034;3.730;2023-03-21T15:35:34;14.00;99.90
36716;DHT22;22699;51.034;3.730;2023-03-21T15:38:00;14.10;99.90
36716;DHT22;22699;51.034;3.730;2023-03-21T15:40:31;14.00;99.90
36716;DHT22;22699;51.034;3.730;2023-03-21T15:43:16;14.00;99.90
36716;DHT22;22699;51.034;3.730;2023-03-21T15:45:54;14.20;99.90
36716;DHT22;22699;51.034;3.730;2023-03-21T15:48:27;14.30;99.90
36716;DHT22;22699;51.034;3.730;2023-03-21T15:51:03;14.40;99.90
36716;DHT22;22699;51.034;3.730;2023-03-21T15:53:35;14.40;99.90
36716;DHT22;22699;51.034;3.730;2023-03-21T15:56:02;14.40;99.90
36716;DHT22;22699;51.034;3.730;2023-03-21T15:58:44;14.30;99.90
36716;DHT22;22699;51.034;3.730;2023-03-21T16:01:16;14.40;99.90
36716;DHT22;22699;51.034;3.730;2023-03-21T16:03:45;14.40;99.90
36716;DHT22;22699;51.034;3.730;2023-03-21T16:06:19;14.40;99.90
36716;DHT22;22699;51.034;3.730;2023-03-21T16:11:41;14.40;99.90
36716;DHT22;22699;51.034;3.730;2023-03-21T16:14:08;14.40;99.90
36716;DHT22;22699;51.034;3.730;2023-03-21T16:16:34;14.30;99.90
36716;DHT22;22699;51.034;3.730;2023-03-21T16:19:01;14.30;99.90
36716;DHT22;22699;51.034;3.730;2023-03-21T16:21:28;14.30;99.90
36716;DHT22;22699;51.034;3.730;2023-03-21T16:23:55;14.30;99.90
36716;DHT22;22699;51.034;3.730;2023-03-21T16:26:24;14.20;99.90
36716;DHT22;22699;51.034;3.730;2023-03-21T16:28:52;14.10;99.90
36716;DHT22;22699;51.034;3.730;2023-03-21T16:31:20;14.20;99.90
36716;DHT22;22699;51.034;3.730;2023-03-21T16:33:46;14.30;99.90
36716;DHT22;22699;51.034;3.730;2023-03-21T16:36:15;14.20;99.90
36716;DHT22;22699;51.034;3.730;2023-03-21T16:38:45;14.30;99.90
36716;DHT22;22699;51.034;3.730;2023-03-21T16:41:13;14.40;99.90
36716;DHT22;22699;51.034;3.730;2023-03-21T16:43:39;14.50;99.90
36716;DHT22;22699;51.034;3.730;2023-03-21T16:46:14;14.30;99.90
36716;DHT22;22699;51.034;3.730;2023-03-21T16:48:41;14.40;99.90
36716;DHT22;22699;51.034;3.730;2023-03-21T16:51:12;14.40;99.90
36716;DHT22;22699;51.034;3.730;2023-03-21T16:53:38;14.40;99.90
36716;DHT22;22699;51.034;3.730;2023-03-21T16:56:04;14.40;99.90
36716;DHT22;22699;51.034;3.730;2023-03-21T16:58:30;14.60;99.90
36716;DHT22;22699;51.034;3.730;2023-03-21T17:00:56;14.40;99.90
36716;DHT22;22699;51.034;3.730;2023-03-21T17:03:22;14.50;99.90
36716;DHT22;22699;51.034;3.730;2023-03-21T17:05:48;14.40;99.90
36716;DHT22;22699;51.034;3.730;2023-03-21T17:08:16;14.40;99.90
36716;DHT22;22699;51.034;3.730;2023-03-21T17:10:41;14.40;99.90
36716;DHT22;22699;51.034;3.730;2023-03-21T17:13:07;14.30;99.90
36716;DHT22;22699;51.034;3.730;2023-03-21T17:15:34;14.20;99.90
36716;DHT22;22699;51.034;3.730;2023-03-21T17:17:59;14.30;99.90
36716;DHT22;22699;51.034;3.730;2023-03-21T17:20:30;14.40;99.90
36716;DHT22;22699;51.034;3.730;2023-03-21T17:22:56;14.40;99.90
36716;DHT22;22699;51.034;3.730;2023-03-21T17:25:22;14.20;99.90
36716;DHT22;22699;51.034;3.730;2023-03-21T17:27:48;14.20;99.90
36716;DHT22;22699;51.034;3.730;2023-03-21T17:30:22;14.20;99.90
36716;DHT22;22699;51.034;3.730;2023-03-21T17:32:49;14.20;99.90